sensor_id;sensor_type;location;lat;lon;timestamp;pressure;altitude;pressure_sealevel;temperature;humidity
15477;BME280;7840;42.702;23.296;2023-02-14T00:01:13;96512.28;;;1.72;100.00
15477;BME280;7840;42.702;23.296;2023-02-14T00:03:41;96512.00;;;1.83;100.00
15477;BME280;7840;42.702;23.296;2023-02-14T00:06:12;96509.06;;;1.86;100.00
15477;BME280;7840;42.702;23.296;2023-02-14T00:08:53;96503.97;;;1.84;100.00
15477;BME280;7840;42.702;23.296;2023-02-14T00:11:53;96508.00;;;1.71;100.00
15477;BME280;7840;42.702;23.296;2023-02-14T00:14:21;96516.81;;;1.70;100.00
15477;BME280;7840;42.702;23.296;2023-02-14T00:17:22;96511.06;;;1.58;100.00
15477;BME280;7840;42.702;23.296;2023-02-14T00:19:59;96515.72;;;1.72;100.00
15477;BME280;7840;42.702;23.296;2023-02-14T00:22:39;96514.75;;;1.81;100.00
15477;BME280;7840;42.702;23.296;2023-02-14T00:25:10;96518.44;;;1.71;100.00
15477;BME280;7840;42.702;23.296;2023-02-14T00:27:54;96506.78;;;1.91;100.00
15477;BME280;7840;42.702;23.296;2023-02-14T00:30:22;96509.78;;;2.04;100.00
15477;BME280;7840;42.702;23.296;2023-02-14T00:32:53;96510.78;;;2.11;100.00
15477;BME280;7840;42.702;23.296;2023-02-14T00:35:20;96503.63;;;2.13;100.00
15477;BME280;7840;42.702;23.296;2023-02-14T00:37:52;96512.59;;;2.19;100.00
15477;BME280;7840;42.702;23.296;2023-02-14T00:40:23;96510.53;;;2.31;100.00
15477;BME280;7840;42.702;23.296;2023-02-14T00:42:52;96516.28;;;2.34;100.00
15477;BME280;7840;42.702;23.296;2023-02-14T00:45:31;96506.81;;;2.41;100.00
15477;BME280;7840;42.702;23.296;2023-02-14T00:48:01;96510.72;;;2.37;100.00
15477;BME280;7840;42.702;23.296;2023-02-14T00:50:31;96509.38;;;2.33;100.00
15477;BME280;7840;42.702;23.296;2023-02-14T00:53:02;96495.19;;;2.36;100.00
15477;BME280;7840;42.702;23.296;2023-02-14T00:55:30;96508.91;;;2.46;100.00
15477;BME280;7840;42.702;23.296;2023-02-14T00:57:58;96495.88;;;2.54;100.00
15477;BME280;7840;42.702;23.296;2023-02-14T01:00:27;96496.34;;;2.41;100.00
15477;BME280;7840;42.702;23.296;2023-02-14T01:02:57;96493.56;;;2.35;100.00
15477;BME280;7840;42.702;23.296;2023-02-14T01:05:46;96486.66;;;2.26;100.00
15477;BME280;7840;42.702;23.296;2023-02-14T01:08:18;96484.09;;;2.34;100.00
15477;BME280;7840;42.702;23.296;2023-02-14T01:10:52;96483.56;;;2.30;100.00
15477;BME280;7840;42.702;23.296;2023-02-14T01:13:20;96486.28;;;2.12;100.00
15477;BME280;7840;42.702;23.296;2023-02-14T01:16:03;96485.66;;;2.18;100.00
15477;BME280;7840;42.702;23.296;2023-02-14T01:19:04;96478.97;;;2.24;100.00
15477;BME280;7840;42.702;23.296;2023-02-14T01:21:32;96482.41;;;2.25;100.00
15477;BME280;7840;42.702;23.296;2023-02-14T01:24:02;96482.38;;;2.16;100.00
15477;BME280;7840;42.702;23.296;2023-02-14T01:26:30;96462.00;;;2.20;100.00
15477;BME280;7840;42.702;23.296;2023-02-14T01:28:58;96469.31;;;2.16;100.00
15477;BME280;7840;42.702;23.296;2023-02-14T01:31:28;96473.44;;;2.27;100.00
15477;BME280;7840;42.702;23.296;2023-02-14T01:33:57;96464.75;;;2.18;100.00
15477;BME280;7840;42.702;23.296;2023-02-14T01:36:29;96471.31;;;2.23;100.00
15477;BME280;7840;42.702;23.296;2023-02-14T01:39:03;96464.75;;;2.18;100.00
15477;BME280;7840;42.702;23.296;2023-02-14T01:41:36;96446.59;;;2.17;100.00
15477;BME280;7840;42.702;23.296;2023-02-14T01:44:57;96438.59;;;2.18;100.00
15477;BME280;7840;42.702;23.296;2023-02-14T01:50:22;96433.38;;;2.18;100.00
15477;BME280;7840;42.702;23.296;2023-02-14T02:27:22;96430.81;;;2.27;100.00
15477;BME280;7840;42.702;23.296;2023-02-14T02:30:30;96415.13;;;2.27;100.00
15477;BME280;7840;42.702;23.296;2023-02-14T02:33:32;96408.56;;;2.23;100.00
15477;BME280;7840;42.702;23.296;2023-02-14T02:39:16;96402.34;;;2.15;100.00
15477;BME280;7840;42.702;23.296;2023-02-14T02:42:02;96385.84;;;2.15;100.00
15477;BME280;7840;42.702;23.296;2023-02-14T02:44:54;96387.47;;;2.16;100.00
15477;BME280;7840;42.702;23.296;2023-02-14T02:47:28;96387.31;;;2.26;100.00
15477;BME280;7840;42.702;23.296;2023-02-14T02:50:04;96394.50;;;2.24;100.00
15477;BME280;7840;42.702;23.296;2023-02-14T02:53:03;96391.56;;;2.18;100.00
15477;BME280;7840;42.702;23.296;2023-02-14T02:55:41;96397.41;;;1.96;100.00
15477;BME280;7840;42.702;23.296;2023-02-14T02:58:30;96396.25;;;1.90;100.00
15477;BME280;7840;42.702;23.296;2023-02-14T03:01:01;96401.66;;;1.97;100.00
15477;BME280;7840;42.702;23.296;2023-02-14T03:03:30;96389.56;;;2.04;100.00
15477;BME280;7840;42.702;23.296;2023-02-14T03:06:16;96398.56;;;2.02;100.00
15477;BME280;7840;42.702;23.296;2023-02-14T03:08:45;96397.41;;;1.88;100.00
15477;BME280;7840;42.702;23.296;2023-02-14T03:11:15;96403.44;;;1.97;100.00
15477;BME280;7840;42.702;23.296;2023-02-14T03:16:53;96395.78;;;1.95;100.00
15477;BME280;7840;42.702;23.296;2023-02-14T03:19:46;96387.28;;;1.93;100.00
15477;BME280;7840;42.702;23.296;2023-02-14T03:22:46;96378.28;;;1.87;100.00
15477;BME280;7840;42.702;23.296;2023-02-14T03:25:28;96383.34;;;1.81;100.00
15477;BME280;7840;42.702;23.296;2023-02-14T03:28:03;96376.84;;;1.93;100.00
15477;BME280;7840;42.702;23.296;2023-02-14T03:30:47;96357.88;;;1.91;100.00
15477;BME280;7840;42.702;23.296;2023-02-14T03:33:24;96357.06;;;1.90;100.00
15477;BME280;7840;42.702;23.296;2023-02-14T03:35:57;96366.84;;;1.88;100.00
15477;BME280;7840;42.702;23.296;2023-02-14T03:38:52;96372.72;;;1.90;100.00
15477;BME280;7840;42.702;23.296;2023-02-14T03:41:48;96378.72;;;1.67;100.00
15477;BME280;7840;42.702;23.296;2023-02-14T03:44:21;96378.03;;;1.64;100.00
15477;BME280;7840;42.702;23.296;2023-02-14T03:46:56;96377.13;;;1.74;100.00
15477;BME280;7840;42.702;23.296;2023-02-14T03:49:28;96375.16;;;1.76;100.00
15477;BME280;7840;42.702;23.296;2023-02-14T03:51:59;96368.28;;;1.75;100.00
15477;BME280;7840;42.702;23.296;2023-02-14T03:54:46;96358.47;;;1.69;100.00
15477;BME280;7840;42.702;23.296;2023-02-14T03:57:21;96358.47;;;1.69;100.00
15477;BME280;7840;42.702;23.296;2023-02-14T03:59:51;96350.66;;;1.77;100.00
15477;BME280;7840;42.702;23.296;2023-02-14T04:02:26;96357.84;;;1.75;100.00
15477;BME280;7840;42.702;23.296;2023-02-14T04:05:04;96354.59;;;1.73;100.00
15477;BME280;7840;42.702;23.296;2023-02-14T04:07:44;96339.56;;;1.83;100.00
15477;BME280;7840;42.702;23.296;2023-02-14T04:10:12;96349.03;;;1.76;100.00
15477;BME280;7840;42.702;23.296;2023-02-14T04:12:42;96344.31;;;1.79;100.00
15477;BME280;7840;42.702;23.296;2023-02-14T04:15:13;96346.72;;;1.64;100.00
15477;BME280;7840;42.702;23.296;2023-02-14T04:17:51;96351.91;;;1.48;100.00
15477;BME280;7840;42.702;23.296;2023-02-14T04:20:36;96348.00;;;1.52;100.00
15477;BME280;7840;42.702;23.296;2023-02-14T04:23:19;96353.03;;;1.46;100.00
15477;BME280;7840;42.702;23.296;2023-02-14T04:25:49;96337.19;;;1.39;100.00
15477;BME280;7840;42.702;23.296;2023-02-14T04:28:29;96344.53;;;1.44;100.00
15477;BME280;7840;42.702;23.296;2023-02-14T04:31:01;96342.91;;;1.51;100.00
15477;BME280;7840;42.702;23.296;2023-02-14T04:33:40;96352.22;;;1.45;100.00
15477;BME280;7840;42.702;23.296;2023-02-14T04:36:28;96351.41;;;1.45;100.00
15477;BME280;7840;42.702;23.296;2023-02-14T04:38:57;96345.38;;;1.44;100.00
15477;BME280;7840;42.702;23.296;2023-02-14T04:41:24;96344.03;;;1.40;100.00
15477;BME280;7840;42.702;23.296;2023-02-14T04:43:53;96337.00;;;1.32;100.00
15477;BME280;7840;42.702;23.296;2023-02-14T04:46:21;96324.78;;;1.41;100.00
15477;BME280;7840;42.702;23.296;2023-02-14T04:48:49;96317.94;;;1.40;100.00
15477;BME280;7840;42.702;23.296;2023-02-14T04:51:17;96318.22;;;1.37;100.00
15477;BME280;7840;42.702;23.296;2023-02-14T04:53:56;96321.19;;;1.42;100.00
15477;BME280;7840;42.702;23.296;2023-02-14T04:56:39;96322.19;;;1.49;100.00
15477;BME280;7840;42.702;23.296;2023-02-14T04:59:09;96319.41;;;1.51;100.00
15477;BME280;7840;42.702;23.296;2023-02-14T05:01:43;96316.50;;;1.46;100.00
15477;BME280;7840;42.702;23.296;2023-02-14T05:07:06;96322.50;;;1.38;100.00
15477;BME280;7840;42.702;23.296;2023-02-14T05:09:34;96322.50;;;1.38;100.00
15477;BME280;7840;42.702;23.296;2023-02-14T05:12:23;96324.44;;;1.36;100.00
15477;BME280;7840;42.702;23.296;2023-02-14T05:15:04;96320.19;;;1.35;100.00
15477;BME280;7840;42.702;23.296;2023-02-14T05:17:34;96316.59;;;1.36;100.00
15477;BME280;7840;42.702;23.296;2023-02-14T05:20:19;96321.19;;;1.42;100.00
15477;BME280;7840;42.702;23.296;2023-02-14T05:23:18;96326.06;;;1.37;100.00
15477;BME280;7840;42.702;23.296;2023-02-14T05:25:47;96324.16;;;1.47;100.00
15477;BME280;7840;42.702;23.296;2023-02-14T05:28:16;96317.31;;;1.46;100.00
15477;BME280;7840;42.702;23.296;2023-02-14T05:30:46;96322.88;;;1.59;100.00
15477;BME280;7840;42.702;23.296;2023-02-14T05:33:13;96326.97;;;1.62;100.00
15477;BME280;7840;42.702;23.296;2023-02-14T05:35:46;96318.31;;;1.70;100.00
15477;BME280;7840;42.702;23.296;2023-02-14T05:38:14;96315.06;;;1.68;100.00
15477;BME280;7840;42.702;23.296;2023-02-14T05:40:42;96319.97;;;1.71;100.00
15477;BME280;7840;42.702;23.296;2023-02-14T05:43:10;96320.13;;;1.61;100.00
15477;BME280;7840;42.702;23.296;2023-02-14T05:45:40;96317.66;;;1.59;100.00
15477;BME280;7840;42.702;23.296;2023-02-14T05:48:22;96310.19;;;1.73;100.00
15477;BME280;7840;42.702;23.296;2023-02-14T05:50:53;96307.56;;;1.73;100.00
15477;BME280;7840;42.702;23.296;2023-02-14T05:53:31;96310.50;;;1.70;100.00
15477;BME280;7840;42.702;23.296;2023-02-14T05:56:13;96313.78;;;1.80;100.00
15477;BME280;7840;42.702;23.296;2023-02-14T05:58:40;96314.44;;;1.82;100.00
15477;BME280;7840;42.702;23.296;2023-02-14T06:01:09;96323.94;;;1.99;100.00
15477;BME280;7840;42.702;23.296;2023-02-14T06:03:39;96305.66;;;2.07;100.00
15477;BME280;7840;42.702;23.296;2023-02-14T06:06:20;96317.38;;;2.11;100.00
15477;BME280;7840;42.702;23.296;2023-02-14T06:08:53;96318.22;;;2.04;100.00
15477;BME280;7840;42.702;23.296;2023-02-14T06:11:23;96316.75;;;2.17;100.00
15477;BME280;7840;42.702;23.296;2023-02-14T06:14:08;96323.44;;;2.28;100.00
15477;BME280;7840;42.702;23.296;2023-02-14T06:16:36;96333.91;;;2.28;100.00
15477;BME280;7840;42.702;23.296;2023-02-14T06:19:05;96326.22;;;2.27;100.00
15477;BME280;7840;42.702;23.296;2023-02-14T06:21:52;96319.69;;;2.23;100.00
15477;BME280;7840;42.702;23.296;2023-02-14T06:24:23;96326.53;;;2.40;100.00
15477;BME280;7840;42.702;23.296;2023-02-14T06:27:04;96336.34;;;2.46;100.00
15477;BME280;7840;42.702;23.296;2023-02-14T06:29:32;96325.06;;;2.37;100.00
15477;BME280;7840;42.702;23.296;2023-02-14T06:32:03;96329.16;;;2.32;100.00
15477;BME280;7840;42.702;23.296;2023-02-14T06:34:51;96322.63;;;2.44;100.00
15477;BME280;7840;42.702;23.296;2023-02-14T06:37:21;96313.13;;;2.51;100.00
15477;BME280;7840;42.702;23.296;2023-02-14T06:40:03;96314.75;;;2.52;100.00
15477;BME280;7840;42.702;23.296;2023-02-14T06:42:31;96323.09;;;2.64;100.00
15477;BME280;7840;42.702;23.296;2023-02-14T06:45:34;96325.84;;;2.70;100.00
15477;BME280;7840;42.702;23.296;2023-02-14T06:48:02;96317.22;;;2.62;100.00
15477;BME280;7840;42.702;23.296;2023-02-14T06:50:30;96311.78;;;2.71;100.00
15477;BME280;7840;42.702;23.296;2023-02-14T06:53:00;96307.25;;;2.57;100.00
15477;BME280;7840;42.702;23.296;2023-02-14T06:55:45;96304.59;;;2.65;100.00
15477;BME280;7840;42.702;23.296;2023-02-14T06:58:12;96297.41;;;2.59;100.00
15477;BME280;7840;42.702;23.296;2023-02-14T07:00:41;96300.97;;;2.83;100.00
15477;BME280;7840;42.702;23.296;2023-02-14T07:03:09;96309.47;;;2.85;100.00
15477;BME280;7840;42.702;23.296;2023-02-14T07:05:57;96303.94;;;2.71;100.00
15477;BME280;7840;42.702;23.296;2023-02-14T07:08:51;96298.50;;;2.81;100.00
15477;BME280;7840;42.702;23.296;2023-02-14T07:11:29;96280.03;;;2.83;100.00
15477;BME280;7840;42.702;23.296;2023-02-14T07:14:23;96279.69;;;2.86;100.00
15477;BME280;7840;42.702;23.296;2023-02-14T07:17:07;96301.94;;;2.90;100.00
15477;BME280;7840;42.702;23.296;2023-02-14T07:19:56;96305.25;;;2.76;100.00
15477;BME280;7840;42.702;23.296;2023-02-14T07:22:27;96308.66;;;2.84;100.00
15477;BME280;7840;42.702;23.296;2023-02-14T07:24:59;96308.00;;;2.82;100.00
15477;BME280;7840;42.702;23.296;2023-02-14T07:27:40;96301.28;;;2.80;100.00
15477;BME280;7840;42.702;23.296;2023-02-14T07:30:22;96328.78;;;2.84;100.00
15477;BME280;7840;42.702;23.296;2023-02-14T07:32:52;96300.66;;;2.78;100.00
15477;BME280;7840;42.702;23.296;2023-02-14T07:35:24;96318.63;;;2.81;100.00
15477;BME280;7840;42.702;23.296;2023-02-14T07:38:04;96307.19;;;2.73;100.00
15477;BME280;7840;42.702;23.296;2023-02-14T07:40:34;96306.88;;;2.77;100.00
15477;BME280;7840;42.702;23.296;2023-02-14T07:43:05;96307.53;;;2.70;100.00
15477;BME280;7840;42.702;23.296;2023-02-14T07:45:37;96298.06;;;2.69;100.00
15477;BME280;7840;42.702;23.296;2023-02-14T07:48:09;96309.81;;;2.73;100.00
15477;BME280;7840;42.702;23.296;2023-02-14T07:50:37;96316.19;;;2.71;100.00
15477;BME280;7840;42.702;23.296;2023-02-14T07:53:05;96324.88;;;2.71;100.00
15477;BME280;7840;42.702;23.296;2023-02-14T07:55:35;96306.25;;;2.74;100.00
15477;BME280;7840;42.702;23.296;2023-02-14T07:58:04;96321.59;;;2.69;100.00
15477;BME280;7840;42.702;23.296;2023-02-14T08:00:32;96316.19;;;2.79;100.00
15477;BME280;7840;42.702;23.296;2023-02-14T08:02:59;96319.31;;;2.74;100.00
15477;BME280;7840;42.702;23.296;2023-02-14T08:05:28;96326.16;;;2.84;100.00
15477;BME280;7840;42.702;23.296;2023-02-14T08:07:56;96327.13;;;2.83;100.00
15477;BME280;7840;42.702;23.296;2023-02-14T08:10:24;96329.75;;;2.83;100.00
15477;BME280;7840;42.702;23.296;2023-02-14T08:12:51;96340.72;;;2.78;100.00
15477;BME280;7840;42.702;23.296;2023-02-14T08:15:24;96327.81;;;2.77;100.00
15477;BME280;7840;42.702;23.296;2023-02-14T08:18:12;96341.88;;;2.76;100.00
15477;BME280;7840;42.702;23.296;2023-02-14T08:20:43;96336.00;;;2.65;100.00
15477;BME280;7840;42.702;23.296;2023-02-14T08:23:11;96335.00;;;2.74;100.00
15477;BME280;7840;42.702;23.296;2023-02-14T08:25:40;96346.13;;;2.77;100.00
15477;BME280;7840;42.702;23.296;2023-02-14T08:28:08;96343.19;;;2.71;100.00
15477;BME280;7840;42.702;23.296;2023-02-14T08:30:37;96366.88;;;2.78;100.00
15477;BME280;7840;42.702;23.296;2023-02-14T08:33:05;96327.81;;;2.77;100.00
15477;BME280;7840;42.702;23.296;2023-02-14T08:35:42;96337.59;;;2.83;100.00
15477;BME280;7840;42.702;23.296;2023-02-14T08:38:11;96332.91;;;2.62;100.00
15477;BME280;7840;42.702;23.296;2023-02-14T08:40:59;96334.38;;;2.64;100.00
15477;BME280;7840;42.702;23.296;2023-02-14T08:43:28;96340.91;;;2.68;100.00
15477;BME280;7840;42.702;23.296;2023-02-14T08:46:13;96347.75;;;2.69;100.00
15477;BME280;7840;42.702;23.296;2023-02-14T08:48:46;96340.06;;;2.76;100.00
15477;BME280;7840;42.702;23.296;2023-02-14T08:51:26;96330.59;;;2.75;100.00
15477;BME280;7840;42.702;23.296;2023-02-14T08:53:53;96342.69;;;2.76;100.00
15477;BME280;7840;42.702;23.296;2023-02-14T08:56:38;96358.19;;;2.86;100.00
15477;BME280;7840;42.702;23.296;2023-02-14T08:59:06;96347.41;;;2.72;100.00
15477;BME280;7840;42.702;23.296;2023-02-14T09:01:34;96354.63;;;2.70;100.00
15477;BME280;7840;42.702;23.296;2023-02-14T09:04:21;96364.28;;;2.62;100.00
15477;BME280;7840;42.702;23.296;2023-02-14T09:06:53;96336.50;;;2.61;100.00
15477;BME280;7840;42.702;23.296;2023-02-14T09:09:23;96328.47;;;2.70;100.00
15477;BME280;7840;42.702;23.296;2023-02-14T09:11:51;96331.56;;;2.66;100.00
15477;BME280;7840;42.702;23.296;2023-02-14T09:14:24;96332.38;;;2.66;100.00
15477;BME280;7840;42.702;23.296;2023-02-14T09:16:52;96327.13;;;2.83;100.00
15477;BME280;7840;42.702;23.296;2023-02-14T09:19:30;96341.84;;;2.84;100.00
15477;BME280;7840;42.702;23.296;2023-02-14T09:22:05;96332.06;;;2.78;100.00
15477;BME280;7840;42.702;23.296;2023-02-14T09:24:35;96326.84;;;2.69;100.00
15477;BME280;7840;42.702;23.296;2023-02-14T09:34:57;96317.66;;;2.73;100.00
15477;BME280;7840;42.702;23.296;2023-02-14T09:37:29;96318.81;;;2.71;100.00
15477;BME280;7840;42.702;23.296;2023-02-14T09:40:09;96328.44;;;2.79;100.00
15477;BME280;7840;42.702;23.296;2023-02-14T09:42:50;96321.59;;;2.69;100.00
15477;BME280;7840;42.702;23.296;2023-02-14T09:45:27;96334.38;;;2.64;100.00
15477;BME280;7840;42.702;23.296;2023-02-14T09:48:00;96321.78;;;2.68;100.00
15477;BME280;7840;42.702;23.296;2023-02-14T09:50:31;96332.38;;;2.66;100.00
15477;BME280;7840;42.702;23.296;2023-02-14T09:53:31;96314.41;;;2.71;100.00
15477;BME280;7840;42.702;23.296;2023-02-14T09:57:02;96318.19;;;2.61;100.00
15477;BME280;7840;42.702;23.296;2023-02-14T09:59:48;96307.84;;;2.67;100.00
15477;BME280;7840;42.702;23.296;2023-02-14T10:05:05;96314.09;;;2.74;100.00
15477;BME280;7840;42.702;23.296;2023-02-14T10:07:44;96316.03;;;2.72;100.00
15477;BME280;7840;42.702;23.296;2023-02-14T10:14:07;96285.97;;;2.68;100.00
15477;BME280;7840;42.702;23.296;2023-02-14T10:17:07;96296.44;;;2.60;100.00
15477;BME280;7840;42.702;23.296;2023-02-14T10:23:29;96305.25;;;2.76;100.00
15477;BME280;7840;42.702;23.296;2023-02-14T10:26:01;96302.63;;;2.76;100.00
15477;BME280;7840;42.702;23.296;2023-02-14T10:28:34;96288.75;;;2.59;100.00
15477;BME280;7840;42.702;23.296;2023-02-14T10:31:34;96290.38;;;2.60;100.00
15477;BME280;7840;42.702;23.296;2023-02-14T10:34:14;96286.94;;;2.67;100.00
15477;BME280;7840;42.702;23.296;2023-02-14T10:37:21;96290.53;;;2.66;100.00
15477;BME280;7840;42.702;23.296;2023-02-14T10:43:24;96297.28;;;2.61;100.00
15477;BME280;7840;42.702;23.296;2023-02-14T10:46:02;96288.72;;;2.67;100.00
15477;BME280;7840;42.702;23.296;2023-02-14T10:48:50;96298.25;;;2.68;100.00
15477;BME280;7840;42.702;23.296;2023-02-14T10:51:31;96282.53;;;2.68;100.00
15477;BME280;7840;42.702;23.296;2023-02-14T10:54:30;96292.50;;;2.64;100.00
15477;BME280;7840;42.702;23.296;2023-02-14T10:57:43;96277.16;;;2.53;100.00
15477;BME280;7840;42.702;23.296;2023-02-14T11:01:00;96279.91;;;2.60;100.00
15477;BME280;7840;42.702;23.296;2023-02-14T11:29:34;96258.44;;;2.89;100.00
15477;BME280;7840;42.702;23.296;2023-02-14T11:32:25;96274.28;;;2.95;100.00
15477;BME280;7840;42.702;23.296;2023-02-14T11:36:01;96248.56;;;2.99;100.00
15477;BME280;7840;42.702;23.296;2023-02-14T11:38:31;96247.28;;;2.95;100.00
15477;BME280;7840;42.702;23.296;2023-02-14T11:41:01;96248.84;;;3.12;100.00
15477;BME280;7840;42.702;23.296;2023-02-14T11:43:32;96248.78;;;3.20;100.00
15477;BME280;7840;42.702;23.296;2023-02-14T11:46:25;96245.75;;;3.09;100.00
15477;BME280;7840;42.702;23.296;2023-02-14T11:48:59;96234.75;;;3.13;100.00
15477;BME280;7840;42.702;23.296;2023-02-14T11:51:30;96233.00;;;3.06;100.00
15477;BME280;7840;42.702;23.296;2023-02-14T11:54:21;96239.31;;;3.19;100.00
15477;BME280;7840;42.702;23.296;2023-02-14T11:56:53;96222.31;;;3.15;100.00
15477;BME280;7840;42.702;23.296;2023-02-14T11:59:29;96227.69;;;3.22;100.00
15477;BME280;7840;42.702;23.296;2023-02-14T12:02:01;96234.03;;;3.27;100.00
15477;BME280;7840;42.702;23.296;2023-02-14T12:04:33;96216.38;;;3.21;100.00
15477;BME280;7840;42.702;23.296;2023-02-14T12:07:18;96217.91;;;3.16;100.00
15477;BME280;7840;42.702;23.296;2023-02-14T12:09:47;96205.91;;;3.21;100.00
15477;BME280;7840;42.702;23.296;2023-02-14T12:12:27;96210.41;;;3.36;100.00
15477;BME280;7840;42.702;23.296;2023-02-14T12:15:25;96205.84;;;3.38;100.00
15477;BME280;7840;42.702;23.296;2023-02-14T12:18:05;96200.78;;;3.59;100.00
15477;BME280;7840;42.702;23.296;2023-02-14T12:20:43;96208.84;;;3.49;100.00
15477;BME280;7840;42.702;23.296;2023-02-14T12:23:20;96196.88;;;3.32;100.00
15477;BME280;7840;42.702;23.296;2023-02-14T12:25:57;96247.06;;;3.36;100.00
15477;BME280;7840;42.702;23.296;2023-02-14T12:28:33;96200.59;;;3.38;100.00
15477;BME280;7840;42.702;23.296;2023-02-14T12:31:08;96203.84;;;3.40;100.00
15477;BME280;7840;42.702;23.296;2023-02-14T12:33:39;96188.13;;;3.40;100.00
15477;BME280;7840;42.702;23.296;2023-02-14T12:36:50;96201.09;;;3.56;100.00
15477;BME280;7840;42.702;23.296;2023-02-14T12:40:19;96198.16;;;3.59;100.00
15477;BME280;7840;42.702;23.296;2023-02-14T12:42:54;96193.63;;;3.53;100.00
15477;BME280;7840;42.702;23.296;2023-02-14T12:48:59;96192.00;;;3.52;100.00
15477;BME280;7840;42.702;23.296;2023-02-14T12:51:41;96191.31;;;3.50;100.00
15477;BME280;7840;42.702;23.296;2023-02-14T12:54:43;96188.38;;;3.53;100.00
15477;BME280;7840;42.702;23.296;2023-02-14T14:33:59;96166.81;;;3.43;100.00
15477;BME280;7840;42.702;23.296;2023-02-14T14:36:27;96155.66;;;3.49;100.00
15477;BME280;7840;42.702;23.296;2023-02-14T14:38:55;96146.09;;;3.56;100.00
15477;BME280;7840;42.702;23.296;2023-02-14T14:41:29;96151.94;;;3.66;100.00
15477;BME280;7840;42.702;23.296;2023-02-14T14:43:58;96161.81;;;3.56;100.00
15477;BME280;7840;42.702;23.296;2023-02-14T14:46:26;96153.84;;;3.49;100.00
15477;BME280;7840;42.702;23.296;2023-02-14T14:48:59;96149.16;;;3.45;100.00
15477;BME280;7840;42.702;23.296;2023-02-14T14:51:32;96157.28;;;3.50;100.00
15477;BME280;7840;42.702;23.296;2023-02-14T14:54:04;96157.19;;;3.43;100.00
15477;BME280;7840;42.702;23.296;2023-02-14T14:56:45;96159.97;;;3.42;100.00
15477;BME280;7840;42.702;23.296;2023-02-14T14:59:24;96149.50;;;3.42;100.00
15477;BME280;7840;42.702;23.296;2023-02-14T15:01:56;96147.75;;;3.34;100.00
15477;BME280;7840;42.702;23.296;2023-02-14T15:04:33;96168.81;;;3.41;100.00
15477;BME280;7840;42.702;23.296;2023-02-14T15:07:18;96161.25;;;3.46;100.00
15477;BME280;7840;42.702;23.296;2023-02-14T15:09:46;96153.69;;;3.51;100.00
15477;BME280;7840;42.702;23.296;2023-02-14T15:12:18;96157.28;;;3.50;100.00
15477;BME280;7840;42.702;23.296;2023-02-14T15:15:05;96162.66;;;3.34;100.00
15477;BME280;7840;42.702;23.296;2023-02-14T15:17:36;96168.81;;;3.41;100.00
15477;BME280;7840;42.702;23.296;2023-02-14T15:20:25;96169.69;;;3.56;100.00
15477;BME280;7840;42.702;23.296;2023-02-14T15:22:54;96174.97;;;3.48;100.00
15477;BME280;7840;42.702;23.296;2023-02-14T15:25:55;96163.56;;;3.41;100.00
15477;BME280;7840;42.702;23.296;2023-02-14T15:28:28;96175.78;;;3.25;100.00
15477;BME280;7840;42.702;23.296;2023-02-14T15:31:02;96169.88;;;3.32;100.00
15477;BME280;7840;42.702;23.296;2023-02-14T15:33:35;96169.28;;;3.44;100.00
15477;BME280;7840;42.702;23.296;2023-02-14T15:36:18;96177.31;;;3.43;100.00
15477;BME280;7840;42.702;23.296;2023-02-14T15:38:50;96167.44;;;3.30;100.00
15477;BME280;7840;42.702;23.296;2023-02-14T15:41:20;96161.84;;;3.33;100.00
15477;BME280;7840;42.702;23.296;2023-02-14T15:43:59;96162.31;;;3.37;100.00
15477;BME280;7840;42.702;23.296;2023-02-14T15:46:42;96173.19;;;3.25;100.00
15477;BME280;7840;42.702;23.296;2023-02-14T15:49:21;96172.88;;;3.20;100.00
15477;BME280;7840;42.702;23.296;2023-02-14T15:51:54;96171.25;;;3.19;100.00
15477;BME280;7840;42.702;23.296;2023-02-14T15:54:32;96173.81;;;3.27;100.00
15477;BME280;7840;42.702;23.296;2023-02-14T15:57:24;96170.25;;;3.20;100.00
15477;BME280;7840;42.702;23.296;2023-02-14T16:00:24;96174.16;;;3.24;100.00
15477;BME280;7840;42.702;23.296;2023-02-14T16:02:57;96169.00;;;3.16;100.00
15477;BME280;7840;42.702;23.296;2023-02-14T16:05:28;96173.19;;;3.25;100.00
15477;BME280;7840;42.702;23.296;2023-02-14T16:08:33;96179.63;;;3.15;100.00
15477;BME280;7840;42.702;23.296;2023-02-14T16:11:25;96181.16;;;3.09;100.00
15477;BME280;7840;42.702;23.296;2023-02-14T16:13:54;96184.41;;;3.11;100.00
15477;BME280;7840;42.702;23.296;2023-02-14T16:16:59;96177.13;;;3.21;100.00
15477;BME280;7840;42.702;23.296;2023-02-14T16:19:45;96170.88;;;3.22;100.00
15477;BME280;7840;42.702;23.296;2023-02-14T16:22:28;96171.06;;;3.21;100.00
15477;BME280;7840;42.702;23.296;2023-02-14T16:25:06;96173.22;;;3.17;100.00
15477;BME280;7840;42.702;23.296;2023-02-14T16:27:41;96176.19;;;3.14;100.00
15477;BME280;7840;42.702;23.296;2023-02-14T16:30:25;96181.66;;;3.05;100.00
15477;BME280;7840;42.702;23.296;2023-02-14T16:32:53;96185.22;;;3.12;100.00
15477;BME280;7840;42.702;23.296;2023-02-14T16:35:22;96171.13;;;3.13;100.00
15477;BME280;7840;42.702;23.296;2023-02-14T16:38:03;96179.22;;;3.03;100.00
15477;BME280;7840;42.702;23.296;2023-02-14T16:40:34;96190.31;;;3.05;100.00
15477;BME280;7840;42.702;23.296;2023-02-14T16:43:02;96181.47;;;3.06;100.00
15477;BME280;7840;42.702;23.296;2023-02-14T16:45:58;96190.19;;;2.98;100.00
15477;BME280;7840;42.702;23.296;2023-02-14T16:51:11;96188.38;;;2.99;100.00
15477;BME280;7840;42.702;23.296;2023-02-14T16:53:40;96191.63;;;3.09;100.00
15477;BME280;7840;42.702;23.296;2023-02-14T16:56:14;96194.91;;;3.03;100.00
15477;BME280;7840;42.702;23.296;2023-02-14T16:58:59;96188.63;;;3.12;100.00
15477;BME280;7840;42.702;23.296;2023-02-14T17:01:30;96194.38;;;3.08;100.00
15477;BME280;7840;42.702;23.296;2023-02-14T17:03:59;96189.00;;;3.01;100.00
15477;BME280;7840;42.702;23.296;2023-02-14T17:06:52;96193.63;;;2.99;100.00
15477;BME280;7840;42.702;23.296;2023-02-14T17:09:53;96188.50;;;3.06;100.00
15477;BME280;7840;42.702;23.296;2023-02-14T17:15:45;96187.38;;;3.00;100.00